Time,TemperatureF,DewpointF,PressureIn,WindDirection,WindDirectionDegrees,WindSpeedMPH,WindSpeedGustMPH,Humidity,HourlyPrecipIn,Conditions,Clouds,dailyrainin,SoftwareType,DateUTC
2013-07-06 00:02:00,58.0,53.0,29.97,North,-999,-999.0,-999.0,83,-99.99,,,-99.99,,2013-07-06 07:02:00,
2013-07-06 00:12:00,58.0,53.0,29.97,North,-999,-999.0,-999.0,83,-99.99,,,-99.99,,2013-07-06 07:12:00,
2013-07-06 00:33:00,57.0,53.0,29.97,North,-999,-999.0,-999.0,86,-99.99,,,-99.99,,2013-07-06 07:33:00,
2013-07-06 00:43:00,57.0,53.0,29.97,North,-999,-999.0,-999.0,86,-99.99,,,-99.99,,2013-07-06 07:43:00,
2013-07-06 00:52:00,56.0,52.0,29.97,North,-999,-999.0,-999.0,88,-99.99,,,-99.99,,2013-07-06 07:52:00,
2013-07-06 01:02:00,56.0,52.0,29.97,North,-999,-999.0,-999.0,88,-99.99,,,-99.99,,2013-07-06 08:02:00,
2013-07-06 01:11:00,56.0,52.0,29.97,North,-999,-999.0,-999.0,88,-99.99,,,-99.99,,2013-07-06 08:11:00,
2013-07-06 01:33:00,55.0,52.0,29.98,North,-999,-999.0,-999.0,90,-99.99,,,-99.99,,2013-07-06 08:33:00,
2013-07-06 01:43:00,55.0,52.0,29.98,North,-999,-999.0,-999.0,90,-99.99,,,-99.99,,2013-07-06 08:43:00,
2013-07-06 01:54:00,54.0,51.0,29.98,North,-999,-999.0,-999.0,92,-99.99,,,-99.99,,2013-07-06 08:54:00,
2013-07-06 02:02:00,54.0,51.0,29.98,North,-999,-999.0,-999.0,92,-99.99,,,-99.99,,2013-07-06 09:02:00,
2013-07-06 02:11:00,54.0,51.0,29.98,North,-999,-999.0,-999.0,92,-99.99,,,-99.99,,2013-07-06 09:11:00,
2013-07-06 02:33:00,53.0,51.0,29.98,North,-999,-999.0,-999.0,93,-99.99,,,-99.99,,2013-07-06 09:33:00,
2013-07-06 02:43:00,53.0,51.0,29.98,North,-999,-999.0,-999.0,93,-99.99,,,-99.99,,2013-07-06 09:43:00,
2013-07-06 02:52:00,53.0,52.0,29.98,North,-999,-999.0,-999.0,94,-99.99,,,-99.99,,2013-07-06 09:52:00,
2013-07-06 03:02:00,53.0,52.0,29.98,North,-999,-999.0,-999.0,94,-99.99,,,-99.99,,2013-07-06 10:02:00,
2013-07-06 03:11:00,53.0,52.0,29.98,North,-999,-999.0,-999.0,94,-99.99,,,-99.99,,2013-07-06 10:11:00,
2013-07-06 03:33:00,53.0,51.0,29.98,North,-999,-999.0,-999.0,95,-99.99,,,-99.99,,2013-07-06 10:33:00,
2013-07-06 03:42:00,53.0,51.0,29.98,North,-999,-999.0,-999.0,95,-99.99,,,-99.99,,2013-07-06 10:42:00,
2013-07-06 03:53:00,54.0,52.0,29.98,North,-999,-999.0,-999.0,95,-99.99,,,-99.99,,2013-07-06 10:53:00,
2013-07-06 04:01:00,54.0,52.0,29.98,North,-999,-999.0,-999.0,95,-99.99,,,-99.99,,2013-07-06 11:01:00,
2013-07-06 04:11:00,54.0,52.0,29.98,North,-999,-999.0,-999.0,95,-99.99,,,-99.99,,2013-07-06 11:11:00,
2013-07-06 04:33:00,58.0,57.0,29.98,North,-999,-999.0,-999.0,96,-99.99,,,-99.99,,2013-07-06 11:33:00,
2013-07-06 04:42:00,58.0,57.0,29.98,North,-999,-999.0,-999.0,96,-99.99,,,-99.99,,2013-07-06 11:42:00,
2013-07-06 04:52:00,59.0,57.0,29.98,North,-999,-999.0,-999.0,93,-99.99,,,-99.99,,2013-07-06 11:52:00,
2013-07-06 05:01:00,59.0,57.0,29.98,North,-999,-999.0,-999.0,93,-99.99,,,-99.99,,2013-07-06 12:01:00,
2013-07-06 05:11:00,59.0,57.0,29.98,North,-999,-999.0,-999.0,93,-99.99,,,-99.99,,2013-07-06 12:11:00,
2013-07-06 05:33:00,60.0,57.0,29.98,North,-999,-999.0,-999.0,90,-99.99,,,-99.99,,2013-07-06 12:33:00,
2013-07-06 05:43:00,60.0,57.0,29.98,North,-999,-999.0,-999.0,90,-99.99,,,-99.99,,2013-07-06 12:43:00,
2013-07-06 06:01:00,60.0,56.0,29.98,North,-999,-999.0,-999.0,86,-99.99,,,-99.99,,2013-07-06 13:01:00,
2013-07-06 06:12:00,60.0,56.0,29.98,North,-999,-999.0,-999.0,86,-99.99,,,-99.99,,2013-07-06 13:12:00,
2013-07-06 06:33:00,61.0,56.0,29.97,North,-999,-999.0,-999.0,84,-99.99,,,-99.99,,2013-07-06 13:33:00,
2013-07-06 06:43:00,61.0,56.0,29.97,North,-999,-999.0,-999.0,84,-99.99,,,-99.99,,2013-07-06 13:43:00,
2013-07-06 07:11:00,62.0,57.0,29.98,North,-999,-999.0,-999.0,82,-99.99,,,-99.99,,2013-07-06 14:11:00,
2013-07-06 07:22:00,62.0,57.0,29.98,North,-999,-999.0,-999.0,82,-99.99,,,-99.99,,2013-07-06 14:22:00,
2013-07-06 07:42:00,64.0,58.0,29.98,North,-999,-999.0,-999.0,80,-99.99,,,-99.99,,2013-07-06 14:42:00,
2013-07-06 07:53:00,65.0,57.0,29.98,North,-999,-999.0,-999.0,75,-99.99,,,-99.99,,2013-07-06 14:53:00,
2013-07-06 08:02:00,65.0,57.0,29.98,North,-999,-999.0,-999.0,75,-99.99,,,-99.99,,2013-07-06 15:02:00,
2013-07-06 08:12:00,65.0,57.0,29.98,North,-999,-999.0,-999.0,75,-99.99,,,-99.99,,2013-07-06 15:12:00,
2013-07-06 08:33:00,66.0,58.0,29.98,North,-999,-999.0,-999.0,74,-99.99,,,-99.99,,2013-07-06 15:33:00,
2013-07-06 08:43:00,66.0,58.0,29.98,North,-999,-999.0,-999.0,74,-99.99,,,-99.99,,2013-07-06 15:43:00,
2013-07-06 08:52:00,66.0,58.0,29.98,North,-999,-999.0,-999.0,73,-99.99,,,-99.99,,2013-07-06 15:52:00,
2013-07-06 09:05:00,66.0,58.0,29.98,North,-999,-999.0,-999.0,73,-99.99,,,-99.99,,2013-07-06 16:05:00,
2013-07-06 09:13:00,66.0,58.0,29.98,North,-999,-999.0,-999.0,73,-99.99,,,-99.99,,2013-07-06 16:13:00,
2013-07-06 09:56:00,67.0,58.0,29.98,North,-999,-999.0,-999.0,72,-99.99,,,-99.99,,2013-07-06 16:56:00,
2013-07-06 10:07:00,67.0,58.0,29.98,North,-999,-999.0,-999.0,72,-99.99,,,-99.99,,2013-07-06 17:07:00,
2013-07-06 10:38:00,68.0,58.0,29.98,North,-999,-999.0,-999.0,70,-99.99,,,-99.99,,2013-07-06 17:38:00,
2013-07-06 10:47:00,68.0,58.0,29.98,North,-999,-999.0,-999.0,70,-99.99,,,-99.99,,2013-07-06 17:47:00,
2013-07-06 10:56:00,68.0,58.0,29.97,North,-999,-999.0,-999.0,70,-99.99,,,-99.99,,2013-07-06 17:56:00,
2013-07-06 11:06:00,68.0,58.0,29.97,North,-999,-999.0,-999.0,70,-99.99,,,-99.99,,2013-07-06 18:06:00,
2013-07-06 11:38:00,68.0,59.0,29.97,North,-999,-999.0,-999.0,70,-99.99,,,-99.99,,2013-07-06 18:38:00,
2013-07-06 12:16:00,68.0,58.0,29.97,North,-999,-999.0,-999.0,69,-99.99,,,-99.99,,2013-07-06 19:16:00,
2013-07-06 12:37:00,69.0,58.0,29.96,North,-999,-999.0,-999.0,68,-99.99,,,-99.99,,2013-07-06 19:37:00,
2013-07-06 12:48:00,69.0,58.0,29.96,North,-999,-999.0,-999.0,68,-99.99,,,-99.99,,2013-07-06 19:48:00,
2013-07-06 12:54:00,71.0,60.0,29.96,North,-999,-999.0,-999.0,67,-99.99,,,-99.99,,2013-07-06 19:54:00,
2013-07-06 13:16:00,71.0,60.0,29.96,North,-999,-999.0,-999.0,67,-99.99,,,-99.99,,2013-07-06 20:16:00,
2013-07-06 13:39:00,71.0,59.0,29.96,North,-999,-999.0,-999.0,66,-99.99,,,-99.99,,2013-07-06 20:39:00,
2013-07-06 14:06:00,71.0,58.0,29.95,North,-999,-999.0,-999.0,62,-99.99,,,-99.99,,2013-07-06 21:06:00,
2013-07-06 14:14:00,71.0,58.0,29.95,North,-999,-999.0,-999.0,62,-99.99,,,-99.99,,2013-07-06 21:14:00,
2013-07-06 14:39:00,71.0,57.0,29.94,North,-999,-999.0,-999.0,59,-99.99,,,-99.99,,2013-07-06 21:39:00,
2013-07-06 14:48:00,71.0,57.0,29.94,North,-999,-999.0,-999.0,59,-99.99,,,-99.99,,2013-07-06 21:48:00,
2013-07-06 14:56:00,72.0,57.0,29.93,North,-999,-999.0,-999.0,58,-99.99,,,-99.99,,2013-07-06 21:56:00,
2013-07-06 15:07:00,72.0,57.0,29.93,North,-999,-999.0,-999.0,58,-99.99,,,-99.99,,2013-07-06 22:07:00,
2013-07-06 15:16:00,72.0,57.0,29.93,North,-999,-999.0,-999.0,58,-99.99,,,-99.99,,2013-07-06 22:16:00,
2013-07-06 15:38:00,73.0,57.0,29.92,North,-999,-999.0,-999.0,56,-99.99,,,-99.99,,2013-07-06 22:38:00,
2013-07-06 16:39:00,72.0,56.0,29.91,North,-999,-999.0,-999.0,56,-99.99,,,-99.99,,2013-07-06 23:39:00,
2013-07-06 17:17:00,76.0,58.0,29.90,North,-999,-999.0,-999.0,54,-99.99,,,-99.99,,2013-07-07 00:17:00,
2013-07-06 17:23:00,76.0,58.0,29.90,North,-999,-999.0,-999.0,54,-99.99,,,-99.99,,2013-07-07 00:23:00,
2013-07-06 18:06:00,70.0,56.0,29.89,North,-999,-999.0,-999.0,61,-99.99,,,-99.99,,2013-07-07 01:06:00,
2013-07-06 18:37:00,69.0,56.0,29.88,North,-999,-999.0,-999.0,62,-99.99,,,-99.99,,2013-07-07 01:37:00,
2013-07-06 18:47:00,69.0,56.0,29.88,North,-999,-999.0,-999.0,62,-99.99,,,-99.99,,2013-07-07 01:47:00,
2013-07-06 19:15:00,70.0,56.0,29.88,North,-999,-999.0,-999.0,61,-99.99,,,-99.99,,2013-07-07 02:15:00,
2013-07-06 20:14:00,63.0,55.0,29.87,North,-999,-999.0,-999.0,74,-99.99,,,-99.99,,2013-07-07 03:14:00,
2013-07-06 20:34:00,63.0,55.0,29.87,North,-999,-999.0,-999.0,74,-99.99,,,-99.99,,2013-07-07 03:34:00,
2013-07-06 21:01:00,63.0,54.0,29.87,North,-999,-999.0,-999.0,74,-99.99,,,-99.99,,2013-07-07 04:01:00,
2013-07-06 21:11:00,63.0,54.0,29.87,North,-999,-999.0,-999.0,74,-99.99,,,-99.99,,2013-07-07 04:11:00,
2013-07-06 21:31:00,61.0,53.0,29.87,North,-999,-999.0,-999.0,75,-99.99,,,-99.99,,2013-07-07 04:31:00,
2013-07-06 21:41:00,61.0,53.0,29.87,North,-999,-999.0,-999.0,75,-99.99,,,-99.99,,2013-07-07 04:41:00,
2013-07-06 21:51:00,58.0,52.0,29.88,North,-999,-999.0,-999.0,79,-99.99,,,-99.99,,2013-07-07 04:51:00,
2013-07-06 22:01:00,58.0,52.0,29.88,North,-999,-999.0,-999.0,79,-99.99,,,-99.99,,2013-07-07 05:01:00,
2013-07-06 22:11:00,58.0,52.0,29.88,North,-999,-999.0,-999.0,79,-99.99,,,-99.99,,2013-07-07 05:11:00,
2013-07-06 22:31:00,58.0,52.0,29.88,North,-999,-999.0,-999.0,81,-99.99,,,-99.99,,2013-07-07 05:31:00,
2013-07-06 22:41:00,58.0,52.0,29.88,North,-999,-999.0,-999.0,81,-99.99,,,-99.99,,2013-07-07 05:41:00,
2013-07-06 22:51:00,57.0,52.0,29.88,North,-999,-999.0,-999.0,82,-99.99,,,-99.99,,2013-07-07 05:51:00,
2013-07-06 23:01:00,57.0,52.0,29.88,North,-999,-999.0,-999.0,82,-99.99,,,-99.99,,2013-07-07 06:01:00,
2013-07-06 23:11:00,57.0,52.0,29.88,North,-999,-999.0,-999.0,82,-99.99,,,-99.99,,2013-07-07 06:11:00,
2013-07-06 23:32:00,58.0,53.0,29.88,North,-999,-999.0,-999.0,84,-99.99,,,-99.99,,2013-07-07 06:32:00,
2013-07-06 23:43:00,58.0,53.0,29.88,North,-999,-999.0,-999.0,84,-99.99,,,-99.99,,2013-07-07 06:43:00,
2013-07-06 23:52:00,58.0,54.0,29.88,North,-999,-999.0,-999.0,86,-99.99,,,-99.99,,2013-07-07 06:52:00,